sensor_id;sensor_type;location;lat;lon;timestamp;P1;durP1;ratioP1;P2;durP2;ratioP2
32535;SDS011;18974;50.838;4.636;2023-04-15T00:00:05;6.13;;;3.35;;
32535;SDS011;18974;50.838;4.636;2023-04-15T00:02:32;6.47;;;3.45;;
32535;SDS011;18974;50.838;4.636;2023-04-15T00:04:57;7.13;;;3.45;;
32535;SDS011;18974;50.838;4.636;2023-04-15T00:07:23;6.68;;;3.20;;
32535;SDS011;18974;50.838;4.636;2023-04-15T00:09:48;6.18;;;3.40;;
32535;SDS011;18974;50.838;4.636;2023-04-15T00:12:14;7.07;;;3.40;;
32535;SDS011;18974;50.838;4.636;2023-04-15T00:14:40;5.55;;;3.20;;
32535;SDS011;18974;50.838;4.636;2023-04-15T00:17:05;7.50;;;3.00;;
32535;SDS011;18974;50.838;4.636;2023-04-15T00:19:31;6.30;;;3.45;;
32535;SDS011;18974;50.838;4.636;2023-04-15T00:21:57;6.85;;;2.53;;
32535;SDS011;18974;50.838;4.636;2023-04-15T00:24:23;5.85;;;2.78;;
32535;SDS011;18974;50.838;4.636;2023-04-15T00:26:49;8.25;;;3.40;;
32535;SDS011;18974;50.838;4.636;2023-04-15T00:29:15;22.42;;;3.40;;
32535;SDS011;18974;50.838;4.636;2023-04-15T00:31:40;6.35;;;3.45;;
32535;SDS011;18974;50.838;4.636;2023-04-15T00:34:06;9.70;;;3.75;;
32535;SDS011;18974;50.838;4.636;2023-04-15T00:36:32;9.13;;;3.58;;
32535;SDS011;18974;50.838;4.636;2023-04-15T00:38:59;7.75;;;3.63;;
32535;SDS011;18974;50.838;4.636;2023-04-15T00:41:25;6.35;;;3.28;;
32535;SDS011;18974;50.838;4.636;2023-04-15T00:43:50;8.00;;;3.70;;
32535;SDS011;18974;50.838;4.636;2023-04-15T00:46:16;11.00;;;3.83;;
32535;SDS011;18974;50.838;4.636;2023-04-15T00:48:44;8.30;;;3.70;;
32535;SDS011;18974;50.838;4.636;2023-04-15T00:51:11;6.32;;;3.50;;
32535;SDS011;18974;50.838;4.636;2023-04-15T00:53:40;9.90;;;3.88;;
32535;SDS011;18974;50.838;4.636;2023-04-15T00:56:06;9.10;;;3.83;;
32535;SDS011;18974;50.838;4.636;2023-04-15T00:58:31;6.60;;;3.50;;
32535;SDS011;18974;50.838;4.636;2023-04-15T01:00:57;7.30;;;3.83;;
32535;SDS011;18974;50.838;4.636;2023-04-15T01:03:23;7.68;;;3.97;;
32535;SDS011;18974;50.838;4.636;2023-04-15T01:05:49;5.47;;;3.03;;
32535;SDS011;18974;50.838;4.636;2023-04-15T01:08:22;7.03;;;4.07;;
32535;SDS011;18974;50.838;4.636;2023-04-15T01:10:57;9.00;;;4.35;;
32535;SDS011;18974;50.838;4.636;2023-04-15T01:13:26;10.50;;;4.25;;
32535;SDS011;18974;50.838;4.636;2023-04-15T01:15:52;6.22;;;3.78;;
32535;SDS011;18974;50.838;4.636;2023-04-15T01:18:18;11.82;;;4.35;;
32535;SDS011;18974;50.838;4.636;2023-04-15T01:20:44;6.38;;;3.70;;
32535;SDS011;18974;50.838;4.636;2023-04-15T01:23:10;8.75;;;4.32;;
32535;SDS011;18974;50.838;4.636;2023-04-15T01:25:37;8.35;;;4.80;;
32535;SDS011;18974;50.838;4.636;2023-04-15T01:28:03;8.50;;;4.55;;
32535;SDS011;18974;50.838;4.636;2023-04-15T01:30:32;6.88;;;4.00;;
32535;SDS011;18974;50.838;4.636;2023-04-15T01:32:58;8.95;;;4.35;;
32535;SDS011;18974;50.838;4.636;2023-04-15T01:35:24;8.18;;;4.00;;
32535;SDS011;18974;50.838;4.636;2023-04-15T01:37:51;9.88;;;4.80;;
32535;SDS011;18974;50.838;4.636;2023-04-15T01:40:18;8.73;;;4.38;;
32535;SDS011;18974;50.838;4.636;2023-04-15T01:42:44;8.63;;;4.57;;
32535;SDS011;18974;50.838;4.636;2023-04-15T01:45:10;10.63;;;4.90;;
32535;SDS011;18974;50.838;4.636;2023-04-15T01:47:37;7.88;;;4.53;;
32535;SDS011;18974;50.838;4.636;2023-04-15T01:50:03;11.85;;;5.88;;
32535;SDS011;18974;50.838;4.636;2023-04-15T01:52:29;10.00;;;5.57;;
32535;SDS011;18974;50.838;4.636;2023-04-15T01:54:55;11.15;;;4.95;;
32535;SDS011;18974;50.838;4.636;2023-04-15T01:57:20;9.40;;;4.22;;
32535;SDS011;18974;50.838;4.636;2023-04-15T01:59:46;8.63;;;5.25;;
32535;SDS011;18974;50.838;4.636;2023-04-15T02:02:11;10.70;;;4.60;;
32535;SDS011;18974;50.838;4.636;2023-04-15T02:04:37;10.80;;;5.13;;
32535;SDS011;18974;50.838;4.636;2023-04-15T02:07:03;8.80;;;5.05;;
32535;SDS011;18974;50.838;4.636;2023-04-15T02:09:28;10.68;;;4.50;;
32535;SDS011;18974;50.838;4.636;2023-04-15T02:11:54;10.10;;;5.25;;
32535;SDS011;18974;50.838;4.636;2023-04-15T02:14:20;10.18;;;4.50;;
32535;SDS011;18974;50.838;4.636;2023-04-15T02:16:46;14.65;;;5.60;;
32535;SDS011;18974;50.838;4.636;2023-04-15T02:19:11;9.77;;;4.30;;
32535;SDS011;18974;50.838;4.636;2023-04-15T02:21:38;10.35;;;5.10;;
32535;SDS011;18974;50.838;4.636;2023-04-15T02:24:03;9.25;;;4.68;;
32535;SDS011;18974;50.838;4.636;2023-04-15T02:26:29;9.80;;;4.32;;
32535;SDS011;18974;50.838;4.636;2023-04-15T02:28:58;7.93;;;4.85;;
32535;SDS011;18974;50.838;4.636;2023-04-15T02:31:24;9.20;;;4.90;;
32535;SDS011;18974;50.838;4.636;2023-04-15T02:33:50;10.90;;;5.22;;
32535;SDS011;18974;50.838;4.636;2023-04-15T02:36:16;9.15;;;5.05;;
32535;SDS011;18974;50.838;4.636;2023-04-15T02:38:41;12.05;;;5.28;;
32535;SDS011;18974;50.838;4.636;2023-04-15T02:41:08;15.38;;;5.50;;
32535;SDS011;18974;50.838;4.636;2023-04-15T02:43:34;10.80;;;5.28;;
32535;SDS011;18974;50.838;4.636;2023-04-15T02:46:00;10.50;;;5.43;;
32535;SDS011;18974;50.838;4.636;2023-04-15T02:48:25;9.88;;;5.40;;
32535;SDS011;18974;50.838;4.636;2023-04-15T02:50:51;12.57;;;5.03;;
32535;SDS011;18974;50.838;4.636;2023-04-15T02:53:17;9.02;;;5.03;;
32535;SDS011;18974;50.838;4.636;2023-04-15T02:55:43;11.85;;;5.57;;
32535;SDS011;18974;50.838;4.636;2023-04-15T02:58:10;9.75;;;4.97;;
32535;SDS011;18974;50.838;4.636;2023-04-15T03:00:35;11.85;;;5.28;;
32535;SDS011;18974;50.838;4.636;2023-04-15T03:03:02;8.85;;;5.80;;
32535;SDS011;18974;50.838;4.636;2023-04-15T03:05:29;8.68;;;5.30;;
32535;SDS011;18974;50.838;4.636;2023-04-15T03:07:54;12.38;;;5.70;;
32535;SDS011;18974;50.838;4.636;2023-04-15T03:10:20;8.05;;;4.97;;
32535;SDS011;18974;50.838;4.636;2023-04-15T03:12:46;10.35;;;5.78;;
32535;SDS011;18974;50.838;4.636;2023-04-15T03:15:12;9.93;;;4.72;;
32535;SDS011;18974;50.838;4.636;2023-04-15T03:17:37;10.80;;;5.45;;
32535;SDS011;18974;50.838;4.636;2023-04-15T03:20:03;11.40;;;6.00;;
32535;SDS011;18974;50.838;4.636;2023-04-15T03:22:30;9.30;;;4.80;;
32535;SDS011;18974;50.838;4.636;2023-04-15T03:24:56;7.50;;;4.95;;
32535;SDS011;18974;50.838;4.636;2023-04-15T03:27:22;9.32;;;5.13;;
32535;SDS011;18974;50.838;4.636;2023-04-15T03:29:48;10.10;;;4.40;;
32535;SDS011;18974;50.838;4.636;2023-04-15T03:32:13;9.27;;;4.97;;
32535;SDS011;18974;50.838;4.636;2023-04-15T03:34:40;8.40;;;4.88;;
32535;SDS011;18974;50.838;4.636;2023-04-15T03:37:06;10.88;;;5.32;;
32535;SDS011;18974;50.838;4.636;2023-04-15T03:39:32;13.25;;;5.53;;
32535;SDS011;18974;50.838;4.636;2023-04-15T03:41:58;9.43;;;5.15;;
32535;SDS011;18974;50.838;4.636;2023-04-15T03:44:27;8.45;;;5.38;;
32535;SDS011;18974;50.838;4.636;2023-04-15T03:46:52;7.93;;;4.70;;
32535;SDS011;18974;50.838;4.636;2023-04-15T03:49:18;7.78;;;5.00;;
32535;SDS011;18974;50.838;4.636;2023-04-15T03:51:44;8.50;;;5.00;;
32535;SDS011;18974;50.838;4.636;2023-04-15T03:54:10;11.02;;;5.43;;
32535;SDS011;18974;50.838;4.636;2023-04-15T03:56:38;9.80;;;5.25;;
32535;SDS011;18974;50.838;4.636;2023-04-15T03:59:04;9.25;;;5.22;;
32535;SDS011;18974;50.838;4.636;2023-04-15T04:01:30;10.45;;;5.40;;
32535;SDS011;18974;50.838;4.636;2023-04-15T04:03:56;10.65;;;5.53;;
32535;SDS011;18974;50.838;4.636;2023-04-15T04:06:21;10.50;;;5.72;;
32535;SDS011;18974;50.838;4.636;2023-04-15T04:08:47;10.90;;;6.00;;
32535;SDS011;18974;50.838;4.636;2023-04-15T04:11:13;13.90;;;7.03;;
32535;SDS011;18974;50.838;4.636;2023-04-15T04:13:39;12.50;;;6.47;;
32535;SDS011;18974;50.838;4.636;2023-04-15T04:16:05;10.13;;;6.93;;
32535;SDS011;18974;50.838;4.636;2023-04-15T04:18:31;10.82;;;6.75;;
32535;SDS011;18974;50.838;4.636;2023-04-15T04:20:56;13.05;;;7.28;;
32535;SDS011;18974;50.838;4.636;2023-04-15T04:23:22;14.68;;;8.02;;
32535;SDS011;18974;50.838;4.636;2023-04-15T04:25:48;11.63;;;7.18;;
32535;SDS011;18974;50.838;4.636;2023-04-15T04:28:14;12.75;;;8.18;;
32535;SDS011;18974;50.838;4.636;2023-04-15T04:30:39;15.68;;;8.38;;
32535;SDS011;18974;50.838;4.636;2023-04-15T04:33:05;13.20;;;7.57;;
32535;SDS011;18974;50.838;4.636;2023-04-15T04:35:31;14.65;;;8.50;;
32535;SDS011;18974;50.838;4.636;2023-04-15T04:37:59;10.85;;;7.93;;
32535;SDS011;18974;50.838;4.636;2023-04-15T04:40:25;17.13;;;8.63;;
32535;SDS011;18974;50.838;4.636;2023-04-15T04:42:51;13.25;;;8.25;;
32535;SDS011;18974;50.838;4.636;2023-04-15T04:45:18;16.67;;;8.90;;
32535;SDS011;18974;50.838;4.636;2023-04-15T04:47:44;12.63;;;7.78;;
32535;SDS011;18974;50.838;4.636;2023-04-15T04:50:10;11.73;;;8.43;;
32535;SDS011;18974;50.838;4.636;2023-04-15T04:52:36;12.13;;;8.25;;
32535;SDS011;18974;50.838;4.636;2023-04-15T04:55:02;11.98;;;8.50;;
32535;SDS011;18974;50.838;4.636;2023-04-15T04:57:28;12.13;;;8.48;;
32535;SDS011;18974;50.838;4.636;2023-04-15T04:59:54;13.63;;;8.32;;
32535;SDS011;18974;50.838;4.636;2023-04-15T05:02:19;14.85;;;8.40;;
32535;SDS011;18974;50.838;4.636;2023-04-15T05:04:45;16.25;;;8.27;;
32535;SDS011;18974;50.838;4.636;2023-04-15T05:07:11;16.38;;;8.82;;
32535;SDS011;18974;50.838;4.636;2023-04-15T05:09:37;11.82;;;7.85;;
32535;SDS011;18974;50.838;4.636;2023-04-15T05:12:03;11.18;;;7.53;;
32535;SDS011;18974;50.838;4.636;2023-04-15T05:14:28;13.40;;;7.95;;
32535;SDS011;18974;50.838;4.636;2023-04-15T05:16:55;12.52;;;8.55;;
32535;SDS011;18974;50.838;4.636;2023-04-15T05:19:20;15.90;;;8.63;;
32535;SDS011;18974;50.838;4.636;2023-04-15T05:21:46;13.18;;;8.05;;
32535;SDS011;18974;50.838;4.636;2023-04-15T05:24:12;16.02;;;8.35;;
32535;SDS011;18974;50.838;4.636;2023-04-15T05:26:37;14.70;;;8.63;;
32535;SDS011;18974;50.838;4.636;2023-04-15T05:29:03;15.88;;;10.05;;
32535;SDS011;18974;50.838;4.636;2023-04-15T05:31:29;13.18;;;8.48;;
32535;SDS011;18974;50.838;4.636;2023-04-15T05:33:54;14.98;;;8.65;;
32535;SDS011;18974;50.838;4.636;2023-04-15T05:36:20;15.63;;;8.13;;
32535;SDS011;18974;50.838;4.636;2023-04-15T05:38:46;14.32;;;8.75;;
32535;SDS011;18974;50.838;4.636;2023-04-15T05:41:11;13.45;;;8.55;;
32535;SDS011;18974;50.838;4.636;2023-04-15T05:43:39;11.80;;;7.63;;
32535;SDS011;18974;50.838;4.636;2023-04-15T05:46:05;14.60;;;8.55;;
32535;SDS011;18974;50.838;4.636;2023-04-15T05:48:32;18.98;;;8.35;;
32535;SDS011;18974;50.838;4.636;2023-04-15T05:50:58;15.38;;;8.35;;
32535;SDS011;18974;50.838;4.636;2023-04-15T05:53:24;17.15;;;7.68;;
32535;SDS011;18974;50.838;4.636;2023-04-15T05:55:50;15.07;;;8.07;;
32535;SDS011;18974;50.838;4.636;2023-04-15T05:58:16;15.45;;;8.48;;
32535;SDS011;18974;50.838;4.636;2023-04-15T06:00:42;18.63;;;7.78;;
32535;SDS011;18974;50.838;4.636;2023-04-15T06:03:08;17.15;;;7.60;;
32535;SDS011;18974;50.838;4.636;2023-04-15T06:05:35;11.90;;;6.85;;
32535;SDS011;18974;50.838;4.636;2023-04-15T06:08:01;13.70;;;8.07;;
32535;SDS011;18974;50.838;4.636;2023-04-15T06:10:26;14.07;;;6.63;;
32535;SDS011;18974;50.838;4.636;2023-04-15T06:12:52;14.77;;;6.53;;
32535;SDS011;18974;50.838;4.636;2023-04-15T06:15:18;15.82;;;6.90;;
32535;SDS011;18974;50.838;4.636;2023-04-15T06:17:44;14.35;;;6.25;;
32535;SDS011;18974;50.838;4.636;2023-04-15T06:20:09;19.60;;;6.97;;
32535;SDS011;18974;50.838;4.636;2023-04-15T06:22:36;10.18;;;5.93;;
32535;SDS011;18974;50.838;4.636;2023-04-15T06:25:03;13.02;;;6.45;;
32535;SDS011;18974;50.838;4.636;2023-04-15T06:27:29;14.50;;;6.18;;
32535;SDS011;18974;50.838;4.636;2023-04-15T06:29:55;11.93;;;6.53;;
32535;SDS011;18974;50.838;4.636;2023-04-15T06:32:20;12.35;;;5.72;;
32535;SDS011;18974;50.838;4.636;2023-04-15T06:34:46;15.50;;;6.28;;
32535;SDS011;18974;50.838;4.636;2023-04-15T06:37:11;12.85;;;5.25;;
32535;SDS011;18974;50.838;4.636;2023-04-15T06:39:41;11.95;;;6.00;;
32535;SDS011;18974;50.838;4.636;2023-04-15T06:42:08;11.38;;;6.43;;
32535;SDS011;18974;50.838;4.636;2023-04-15T06:44:35;12.98;;;5.95;;
32535;SDS011;18974;50.838;4.636;2023-04-15T06:47:01;10.90;;;6.35;;
32535;SDS011;18974;50.838;4.636;2023-04-15T06:49:27;10.02;;;5.78;;
32535;SDS011;18974;50.838;4.636;2023-04-15T06:51:52;15.00;;;5.15;;
32535;SDS011;18974;50.838;4.636;2023-04-15T06:54:18;14.85;;;6.30;;
32535;SDS011;18974;50.838;4.636;2023-04-15T06:56:44;10.70;;;6.13;;
32535;SDS011;18974;50.838;4.636;2023-04-15T06:59:09;13.27;;;6.72;;
32535;SDS011;18974;50.838;4.636;2023-04-15T07:01:35;10.23;;;5.60;;
32535;SDS011;18974;50.838;4.636;2023-04-15T07:04:00;15.00;;;6.95;;
32535;SDS011;18974;50.838;4.636;2023-04-15T07:06:26;13.07;;;6.78;;
32535;SDS011;18974;50.838;4.636;2023-04-15T07:08:52;16.48;;;7.03;;
32535;SDS011;18974;50.838;4.636;2023-04-15T07:11:18;15.40;;;6.40;;
32535;SDS011;18974;50.838;4.636;2023-04-15T07:13:45;14.55;;;6.43;;
32535;SDS011;18974;50.838;4.636;2023-04-15T07:16:11;13.30;;;6.55;;
32535;SDS011;18974;50.838;4.636;2023-04-15T07:18:36;13.20;;;5.97;;
32535;SDS011;18974;50.838;4.636;2023-04-15T07:21:02;14.95;;;5.60;;
32535;SDS011;18974;50.838;4.636;2023-04-15T07:23:28;15.38;;;6.32;;
32535;SDS011;18974;50.838;4.636;2023-04-15T07:25:54;19.23;;;6.47;;
32535;SDS011;18974;50.838;4.636;2023-04-15T07:28:19;11.98;;;6.70;;
32535;SDS011;18974;50.838;4.636;2023-04-15T07:30:45;15.40;;;7.85;;
32535;SDS011;18974;50.838;4.636;2023-04-15T07:33:11;11.75;;;6.10;;
32535;SDS011;18974;50.838;4.636;2023-04-15T07:35:36;19.42;;;7.22;;
32535;SDS011;18974;50.838;4.636;2023-04-15T07:38:02;15.57;;;6.22;;
32535;SDS011;18974;50.838;4.636;2023-04-15T07:40:28;12.18;;;6.80;;
32535;SDS011;18974;50.838;4.636;2023-04-15T07:42:54;14.40;;;6.90;;
32535;SDS011;18974;50.838;4.636;2023-04-15T07:45:21;19.58;;;6.07;;
32535;SDS011;18974;50.838;4.636;2023-04-15T07:47:46;13.32;;;6.72;;
32535;SDS011;18974;50.838;4.636;2023-04-15T07:50:12;13.23;;;6.57;;
32535;SDS011;18974;50.838;4.636;2023-04-15T07:52:38;14.43;;;6.60;;
32535;SDS011;18974;50.838;4.636;2023-04-15T07:55:05;18.23;;;7.40;;
32535;SDS011;18974;50.838;4.636;2023-04-15T07:57:32;13.98;;;7.05;;
32535;SDS011;18974;50.838;4.636;2023-04-15T07:59:59;16.38;;;6.88;;
32535;SDS011;18974;50.838;4.636;2023-04-15T08:02:24;18.67;;;7.13;;
32535;SDS011;18974;50.838;4.636;2023-04-15T08:04:50;17.88;;;6.78;;
32535;SDS011;18974;50.838;4.636;2023-04-15T08:07:17;14.45;;;6.78;;
32535;SDS011;18974;50.838;4.636;2023-04-15T08:09:42;12.60;;;6.30;;
32535;SDS011;18974;50.838;4.636;2023-04-15T08:12:08;18.20;;;7.45;;
32535;SDS011;18974;50.838;4.636;2023-04-15T08:14:37;15.45;;;6.95;;
32535;SDS011;18974;50.838;4.636;2023-04-15T08:17:03;14.70;;;6.25;;
32535;SDS011;18974;50.838;4.636;2023-04-15T08:19:29;15.98;;;6.65;;
32535;SDS011;18974;50.838;4.636;2023-04-15T08:21:55;14.82;;;6.60;;
32535;SDS011;18974;50.838;4.636;2023-04-15T08:24:21;13.23;;;5.68;;
32535;SDS011;18974;50.838;4.636;2023-04-15T08:26:48;12.55;;;5.53;;
32535;SDS011;18974;50.838;4.636;2023-04-15T08:29:13;11.50;;;5.30;;
32535;SDS011;18974;50.838;4.636;2023-04-15T08:31:40;12.60;;;5.68;;
32535;SDS011;18974;50.838;4.636;2023-04-15T08:34:05;16.23;;;5.72;;
32535;SDS011;18974;50.838;4.636;2023-04-15T08:36:31;12.40;;;6.03;;
32535;SDS011;18974;50.838;4.636;2023-04-15T08:38:57;13.88;;;5.70;;
32535;SDS011;18974;50.838;4.636;2023-04-15T08:41:25;12.90;;;5.60;;
32535;SDS011;18974;50.838;4.636;2023-04-15T08:43:57;9.52;;;5.10;;
32535;SDS011;18974;50.838;4.636;2023-04-15T08:46:27;10.15;;;5.63;;
32535;SDS011;18974;50.838;4.636;2023-04-15T08:48:55;13.18;;;5.82;;
32535;SDS011;18974;50.838;4.636;2023-04-15T08:51:22;15.40;;;5.35;;
32535;SDS011;18974;50.838;4.636;2023-04-15T08:53:48;12.70;;;5.75;;
32535;SDS011;18974;50.838;4.636;2023-04-15T08:56:15;11.23;;;5.70;;
32535;SDS011;18974;50.838;4.636;2023-04-15T08:58:41;13.40;;;4.72;;
32535;SDS011;18974;50.838;4.636;2023-04-15T09:01:08;15.10;;;5.78;;
32535;SDS011;18974;50.838;4.636;2023-04-15T09:03:35;12.00;;;5.28;;
32535;SDS011;18974;50.838;4.636;2023-04-15T09:06:03;12.48;;;5.20;;
32535;SDS011;18974;50.838;4.636;2023-04-15T09:08:29;15.32;;;6.15;;
32535;SDS011;18974;50.838;4.636;2023-04-15T09:10:55;12.23;;;5.72;;
32535;SDS011;18974;50.838;4.636;2023-04-15T09:13:21;11.30;;;5.63;;
32535;SDS011;18974;50.838;4.636;2023-04-15T09:15:47;10.57;;;6.00;;
32535;SDS011;18974;50.838;4.636;2023-04-15T09:18:12;14.30;;;6.10;;
32535;SDS011;18974;50.838;4.636;2023-04-15T09:20:50;9.85;;;6.30;;
32535;SDS011;18974;50.838;4.636;2023-04-15T09:23:17;14.98;;;7.25;;
32535;SDS011;18974;50.838;4.636;2023-04-15T09:25:43;12.02;;;6.22;;
32535;SDS011;18974;50.838;4.636;2023-04-15T09:28:10;13.43;;;7.25;;
32535;SDS011;18974;50.838;4.636;2023-04-15T09:30:36;15.48;;;6.78;;
32535;SDS011;18974;50.838;4.636;2023-04-15T09:33:02;11.13;;;6.80;;
32535;SDS011;18974;50.838;4.636;2023-04-15T09:35:32;14.55;;;6.32;;
32535;SDS011;18974;50.838;4.636;2023-04-15T09:38:06;16.45;;;7.05;;
32535;SDS011;18974;50.838;4.636;2023-04-15T09:40:37;8.07;;;5.53;;
32535;SDS011;18974;50.838;4.636;2023-04-15T09:43:05;10.35;;;5.57;;
32535;SDS011;18974;50.838;4.636;2023-04-15T09:45:32;14.65;;;6.45;;
32535;SDS011;18974;50.838;4.636;2023-04-15T09:48:13;11.98;;;5.85;;
32535;SDS011;18974;50.838;4.636;2023-04-15T09:50:46;12.48;;;5.97;;
32535;SDS011;18974;50.838;4.636;2023-04-15T09:53:16;8.32;;;5.57;;
32535;SDS011;18974;50.838;4.636;2023-04-15T09:55:51;10.57;;;5.65;;
32535;SDS011;18974;50.838;4.636;2023-04-15T09:58:22;9.77;;;6.45;;
32535;SDS011;18974;50.838;4.636;2023-04-15T10:00:50;7.20;;;4.88;;
32535;SDS011;18974;50.838;4.636;2023-04-15T10:03:20;7.18;;;4.07;;
32535;SDS011;18974;50.838;4.636;2023-04-15T10:05:47;7.45;;;4.68;;
32535;SDS011;18974;50.838;4.636;2023-04-15T10:08:18;8.68;;;3.72;;
32535;SDS011;18974;50.838;4.636;2023-04-15T10:10:46;7.82;;;3.83;;
32535;SDS011;18974;50.838;4.636;2023-04-15T10:13:13;7.97;;;3.75;;
32535;SDS011;18974;50.838;4.636;2023-04-15T10:15:43;8.32;;;4.20;;
32535;SDS011;18974;50.838;4.636;2023-04-15T10:18:11;8.27;;;3.60;;
32535;SDS011;18974;50.838;4.636;2023-04-15T10:20:41;8.05;;;4.32;;
32535;SDS011;18974;50.838;4.636;2023-04-15T10:23:08;6.68;;;3.78;;
32535;SDS011;18974;50.838;4.636;2023-04-15T10:25:34;7.47;;;3.53;;
32535;SDS011;18974;50.838;4.636;2023-04-15T10:28:01;7.57;;;3.58;;
32535;SDS011;18974;50.838;4.636;2023-04-15T10:30:27;6.70;;;2.80;;
32535;SDS011;18974;50.838;4.636;2023-04-15T10:32:54;5.40;;;2.90;;
32535;SDS011;18974;50.838;4.636;2023-04-15T10:35:21;5.93;;;3.20;;
32535;SDS011;18974;50.838;4.636;2023-04-15T10:37:47;5.28;;;2.88;;
32535;SDS011;18974;50.838;4.636;2023-04-15T10:40:27;4.88;;;2.78;;
32535;SDS011;18974;50.838;4.636;2023-04-15T10:43:00;5.15;;;2.80;;
32535;SDS011;18974;50.838;4.636;2023-04-15T10:45:33;5.82;;;3.03;;
32535;SDS011;18974;50.838;4.636;2023-04-15T10:48:01;8.13;;;3.08;;
32535;SDS011;18974;50.838;4.636;2023-04-15T10:50:29;7.10;;;3.42;;
32535;SDS011;18974;50.838;4.636;2023-04-15T10:52:56;6.45;;;3.42;;
32535;SDS011;18974;50.838;4.636;2023-04-15T10:55:23;8.80;;;2.95;;
32535;SDS011;18974;50.838;4.636;2023-04-15T10:57:54;6.82;;;2.80;;
32535;SDS011;18974;50.838;4.636;2023-04-15T11:00:24;6.25;;;3.47;;
32535;SDS011;18974;50.838;4.636;2023-04-15T11:02:51;5.97;;;3.03;;
32535;SDS011;18974;50.838;4.636;2023-04-15T11:05:20;6.60;;;3.38;;
32535;SDS011;18974;50.838;4.636;2023-04-15T11:07:52;6.40;;;3.67;;
32535;SDS011;18974;50.838;4.636;2023-04-15T11:12:51;6.75;;;4.20;;
32535;SDS011;18974;50.838;4.636;2023-04-15T11:17:57;8.07;;;3.25;;
32535;SDS011;18974;50.838;4.636;2023-04-15T11:20:37;3.45;;;2.78;;
32535;SDS011;18974;50.838;4.636;2023-04-15T11:23:04;3.95;;;2.42;;
32535;SDS011;18974;50.838;4.636;2023-04-15T11:25:31;5.32;;;2.80;;
32535;SDS011;18974;50.838;4.636;2023-04-15T11:27:58;6.50;;;3.60;;
32535;SDS011;18974;50.838;4.636;2023-04-15T11:30:29;7.28;;;3.10;;
32535;SDS011;18974;50.838;4.636;2023-04-15T11:32:57;6.45;;;2.33;;
32535;SDS011;18974;50.838;4.636;2023-04-15T11:35:24;5.47;;;2.80;;
32535;SDS011;18974;50.838;4.636;2023-04-15T11:37:50;4.07;;;2.80;;
32535;SDS011;18974;50.838;4.636;2023-04-15T11:40:19;5.88;;;3.20;;
32535;SDS011;18974;50.838;4.636;2023-04-15T11:43:06;6.82;;;3.22;;
32535;SDS011;18974;50.838;4.636;2023-04-15T11:45:32;6.25;;;3.25;;
32535;SDS011;18974;50.838;4.636;2023-04-15T11:48:08;5.78;;;2.95;;
32535;SDS011;18974;50.838;4.636;2023-04-15T11:50:36;3.92;;;2.92;;
32535;SDS011;18974;50.838;4.636;2023-04-15T11:53:04;4.95;;;3.03;;
32535;SDS011;18974;50.838;4.636;2023-04-15T11:55:39;5.18;;;3.63;;
32535;SDS011;18974;50.838;4.636;2023-04-15T12:00:37;7.00;;;3.22;;
32535;SDS011;18974;50.838;4.636;2023-04-15T12:03:11;5.65;;;3.45;;
32535;SDS011;18974;50.838;4.636;2023-04-15T12:11:32;6.45;;;3.30;;
32535;SDS011;18974;50.838;4.636;2023-04-15T12:16:32;3.58;;;2.35;;
32535;SDS011;18974;50.838;4.636;2023-04-15T12:19:00;3.90;;;2.10;;
32535;SDS011;18974;50.838;4.636;2023-04-15T12:21:32;3.60;;;1.90;;
32535;SDS011;18974;50.838;4.636;2023-04-15T12:24:01;5.15;;;2.00;;
32535;SDS011;18974;50.838;4.636;2023-04-15T12:26:36;5.05;;;2.33;;
32535;SDS011;18974;50.838;4.636;2023-04-15T12:29:06;6.45;;;3.05;;
32535;SDS011;18974;50.838;4.636;2023-04-15T12:31:35;8.13;;;2.53;;
32535;SDS011;18974;50.838;4.636;2023-04-15T12:34:01;6.88;;;2.50;;
32535;SDS011;18974;50.838;4.636;2023-04-15T12:36:28;3.90;;;2.42;;
32535;SDS011;18974;50.838;4.636;2023-04-15T12:39:00;3.13;;;2.20;;
32535;SDS011;18974;50.838;4.636;2023-04-15T12:41:29;7.75;;;2.70;;
32535;SDS011;18974;50.838;4.636;2023-04-15T12:43:55;3.00;;;2.20;;
32535;SDS011;18974;50.838;4.636;2023-04-15T12:46:20;3.80;;;1.65;;
32535;SDS011;18974;50.838;4.636;2023-04-15T12:48:46;4.88;;;1.35;;
32535;SDS011;18974;50.838;4.636;2023-04-15T12:51:12;2.67;;;1.50;;
32535;SDS011;18974;50.838;4.636;2023-04-15T12:53:38;2.30;;;1.30;;
32535;SDS011;18974;50.838;4.636;2023-04-15T12:56:04;1.92;;;1.13;;
32535;SDS011;18974;50.838;4.636;2023-04-15T12:58:30;2.08;;;1.20;;
32535;SDS011;18974;50.838;4.636;2023-04-15T13:00:56;3.88;;;1.50;;
32535;SDS011;18974;50.838;4.636;2023-04-15T13:03:23;2.83;;;1.45;;
32535;SDS011;18974;50.838;4.636;2023-04-15T13:05:49;3.33;;;1.60;;
32535;SDS011;18974;50.838;4.636;2023-04-15T13:08:15;3.95;;;1.55;;
32535;SDS011;18974;50.838;4.636;2023-04-15T13:10:40;3.30;;;1.60;;
32535;SDS011;18974;50.838;4.636;2023-04-15T13:13:07;2.38;;;1.73;;
32535;SDS011;18974;50.838;4.636;2023-04-15T13:15:33;4.50;;;2.20;;
32535;SDS011;18974;50.838;4.636;2023-04-15T13:17:59;2.67;;;1.80;;
32535;SDS011;18974;50.838;4.636;2023-04-15T13:20:25;3.00;;;1.85;;
32535;SDS011;18974;50.838;4.636;2023-04-15T13:22:51;2.40;;;1.40;;
32535;SDS011;18974;50.838;4.636;2023-04-15T13:25:18;3.92;;;1.88;;
32535;SDS011;18974;50.838;4.636;2023-04-15T13:27:44;4.05;;;1.90;;
32535;SDS011;18974;50.838;4.636;2023-04-15T13:30:09;6.15;;;1.90;;
32535;SDS011;18974;50.838;4.636;2023-04-15T13:32:35;3.55;;;1.45;;
32535;SDS011;18974;50.838;4.636;2023-04-15T13:35:01;5.40;;;1.38;;
32535;SDS011;18974;50.838;4.636;2023-04-15T13:37:27;6.18;;;2.15;;
32535;SDS011;18974;50.838;4.636;2023-04-15T13:39:54;3.85;;;1.63;;
32535;SDS011;18974;50.838;4.636;2023-04-15T13:42:23;4.75;;;1.58;;
32535;SDS011;18974;50.838;4.636;2023-04-15T13:44:49;7.43;;;1.67;;
32535;SDS011;18974;50.838;4.636;2023-04-15T13:47:15;4.75;;;1.92;;
32535;SDS011;18974;50.838;4.636;2023-04-15T13:49:43;5.20;;;1.90;;
32535;SDS011;18974;50.838;4.636;2023-04-15T13:52:08;3.90;;;1.77;;
32535;SDS011;18974;50.838;4.636;2023-04-15T13:54:35;4.38;;;1.60;;
32535;SDS011;18974;50.838;4.636;2023-04-15T13:57:00;4.57;;;2.03;;
32535;SDS011;18974;50.838;4.636;2023-04-15T13:59:26;6.93;;;1.70;;
32535;SDS011;18974;50.838;4.636;2023-04-15T14:01:52;4.85;;;2.10;;
32535;SDS011;18974;50.838;4.636;2023-04-15T14:04:17;7.05;;;2.47;;
32535;SDS011;18974;50.838;4.636;2023-04-15T14:06:43;3.35;;;1.85;;
32535;SDS011;18974;50.838;4.636;2023-04-15T14:09:09;3.40;;;1.65;;
32535;SDS011;18974;50.838;4.636;2023-04-15T14:11:36;3.80;;;2.00;;
32535;SDS011;18974;50.838;4.636;2023-04-15T14:14:03;5.15;;;2.05;;
32535;SDS011;18974;50.838;4.636;2023-04-15T14:16:28;8.23;;;1.90;;
32535;SDS011;18974;50.838;4.636;2023-04-15T14:18:56;4.80;;;1.90;;
32535;SDS011;18974;50.838;4.636;2023-04-15T14:21:22;3.10;;;1.90;;
32535;SDS011;18974;50.838;4.636;2023-04-15T14:23:48;4.63;;;2.00;;
32535;SDS011;18974;50.838;4.636;2023-04-15T14:26:13;6.30;;;2.45;;
32535;SDS011;18974;50.838;4.636;2023-04-15T14:28:39;3.75;;;1.70;;
32535;SDS011;18974;50.838;4.636;2023-04-15T14:31:04;5.85;;;1.75;;
32535;SDS011;18974;50.838;4.636;2023-04-15T14:33:30;4.80;;;1.27;;
32535;SDS011;18974;50.838;4.636;2023-04-15T14:35:56;7.78;;;1.35;;
32535;SDS011;18974;50.838;4.636;2023-04-15T14:38:22;2.35;;;1.15;;
32535;SDS011;18974;50.838;4.636;2023-04-15T14:40:47;2.92;;;1.13;;
32535;SDS011;18974;50.838;4.636;2023-04-15T14:43:13;3.78;;;1.30;;
32535;SDS011;18974;50.838;4.636;2023-04-15T14:45:39;3.80;;;1.50;;
32535;SDS011;18974;50.838;4.636;2023-04-15T14:48:05;3.72;;;1.25;;
32535;SDS011;18974;50.838;4.636;2023-04-15T14:50:33;4.65;;;1.33;;
32535;SDS011;18974;50.838;4.636;2023-04-15T14:53:00;7.95;;;1.70;;